Time;durP1;ratioP1;P1;durP2;ratioP2;P2;SDS_P1;SDS_P2;PMS_P1;PMS_P2;Temp;Humidity;BMP_temperature;BMP_pressure;BME280_temperature;BME280_humidity;BME280_pressure;Samples;Min_cycle;Max_cycle;Signal;HPM_P1;HPM_P2
2022/06/03 00:00:32;;;;;;;;;;;27.20;58.40;;;;;;664889;29;873;-89
2022/06/03 00:01:20;;;;;;;;;;;27.20;58.40;;;;;;662520;29;988;-88
2022/06/03 00:01:41;;;;;;;;;;;27.20;58.30;;;;;;662349;29;1308;-86
2022/06/03 00:02:08;;;;;;;;;;;27.20;57.40;;;;;;662300;29;1435;-87
2022/06/03 00:02:47;;;;;;;;;;;27.20;58.40;;;;;;663675;29;1549;-86
2022/06/03 00:03:37;;;;;;;;;;;27.30;58.40;;;;;;663513;29;1299;-89
2022/06/03 00:04:13;;;;;;;;;;;27.20;58.40;;;;;;665326;29;1123;-87
2022/06/03 00:04:42;;;;;;;;;;;27.20;57.30;;;;;;662880;29;1424;-80
2022/06/03 00:05:22;;;;;;;;;;;27.20;58.30;;;;;;662485;29;881;-91
2022/06/03 00:05:48;;;;;;;;;;;27.20;58.20;;;;;;662409;29;884;-90
2022/06/03 00:06:11;;;;;;;;;;;27.20;57.30;;;;;;662474;29;809;-89
2022/06/03 00:06:37;;;;;;;;;;;27.20;57.30;;;;;;662301;29;1734;-89
2022/06/03 00:07:00;;;;;;;;;;;27.20;58.20;;;;;;662488;29;872;-90
2022/06/03 00:07:27;;;;;;;;;;;27.20;58.20;;;;;;662497;29;967;-90
2022/06/03 00:07:55;;;;;;;;;;;27.20;58.20;;;;;;662225;29;1689;-93
2022/06/03 00:08:18;;;;;;;;;;;27.20;57.30;;;;;;662357;29;810;-89
2022/06/03 00:08:39;;;;;;;;;;;27.20;58.20;;;;;;662403;29;904;-91
2022/06/03 00:09:12;;;;;;;;;;;27.20;57.30;;;;;;662182;29;1649;-84
2022/06/03 00:09:46;;;;;;;;;;;27.20;57.30;;;;;;662471;29;872;-89
2022/06/03 00:10:25;;;;;;;;;;;27.20;57.20;;;;;;662279;29;1974;-91
2022/06/03 00:11:01;;;;;;;;;;;27.20;58.20;;;;;;660571;29;1711;-91
2022/06/03 00:11:25;;;;;;;;;;;27.20;57.30;;;;;;659886;29;1494;-89
2022/06/03 00:11:54;;;;;;;;;;;27.30;58.30;;;;;;659661;30;869;-90
2022/06/03 00:12:33;;;;;;;;;;;27.20;57.30;;;;;;659832;30;924;-87
2022/06/03 00:13:12;;;;;;;;;;;27.20;58.20;;;;;;660626;29;1719;-90
2022/06/03 00:13:33;;;;;;;;;;;27.30;58.20;;;;;;659847;30;880;-89
2022/06/03 00:13:53;;;;;;;;;;;27.20;58.10;;;;;;660009;30;1111;-84
2022/06/03 00:14:26;;;;;;;;;;;27.20;57.20;;;;;;659915;30;924;-93
2022/06/03 00:14:56;;;;;;;;;;;27.20;57.30;;;;;;659971;29;902;-93
2022/06/03 00:15:16;;;;;;;;;;;27.20;57.20;;;;;;660864;29;1794;-91
2022/06/03 00:15:40;;;;;;;;;;;27.20;57.20;;;;;;662405;29;821;-94
2022/06/03 00:16:21;;;;;;;;;;;27.20;57.20;;;;;;662107;29;1640;-89
2022/06/03 00:16:44;;;;;;;;;;;27.20;57.40;;;;;;662367;29;1709;-93
2022/06/03 00:17:11;;;;;;;;;;;27.20;57.40;;;;;;668884;29;1048;-94
2022/06/03 00:17:38;;;;;;;;;;;27.20;58.30;;;;;;674973;29;1641;-91
2022/06/03 00:18:04;;;;;;;;;;;27.20;58.30;;;;;;672605;29;951;-88
2022/06/03 00:18:48;;;;;;;;;;;27.20;58.30;;;;;;672712;29;836;-86
2022/06/03 00:19:28;;;;;;;;;;;27.20;58.30;;;;;;672535;29;837;-86
2022/06/03 00:19:49;;;;;;;;;;;27.20;58.30;;;;;;672361;29;900;-93
2022/06/03 00:20:28;;;;;;;;;;;27.20;58.40;;;;;;673166;29;1006;-92
2022/06/03 00:21:02;;;;;;;;;;;27.20;58.30;;;;;;680443;29;1073;-90
2022/06/03 00:21:23;;;;;;;;;;;27.20;58.50;;;;;;680739;29;832;-85
2022/06/03 00:21:58;;;;;;;;;;;27.20;58.50;;;;;;680540;29;808;-89
2022/06/03 00:22:21;;;;;;;;;;;27.20;58.40;;;;;;680250;29;1237;-86
2022/06/03 00:22:44;;;;;;;;;;;27.20;58.30;;;;;;680373;29;832;-90
2022/06/03 00:23:06;;;;;;;;;;;27.20;58.30;;;;;;680431;29;824;-92
2022/06/03 00:23:35;;;;;;;;;;;27.20;58.40;;;;;;681866;29;1683;-87
2022/06/03 00:23:57;;;;;;;;;;;27.20;58.40;;;;;;680666;29;1609;-90
2022/06/03 00:24:36;;;;;;;;;;;27.20;58.50;;;;;;683277;29;839;-91
2022/06/03 00:24:56;;;;;;;;;;;27.20;58.40;;;;;;683247;29;923;-89
2022/06/03 00:25:23;;;;;;;;;;;27.20;57.50;;;;;;683343;29;1235;-91
2022/06/03 00:25:51;;;;;;;;;;;27.20;58.40;;;;;;683460;29;926;-82
2022/06/03 00:26:11;;;;;;;;;;;27.20;57.50;;;;;;683217;29;906;-89
2022/06/03 00:26:44;;;;;;;;;;;27.20;57.40;;;;;;683022;29;1220;-86
2022/06/03 00:27:15;;;;;;;;;;;27.20;57.40;;;;;;683070;29;1328;-85
2022/06/03 00:27:36;;;;;;;;;;;27.20;58.30;;;;;;683224;28;905;-90
2022/06/03 00:27:59;;;;;;;;;;;27.20;57.40;;;;;;683277;29;1318;-91
2022/06/03 00:28:49;;;;;;;;;;;27.20;57.50;;;;;;683178;28;1440;-89
2022/06/03 00:29:10;;;;;;;;;;;27.20;58.40;;;;;;680281;29;816;-89
2022/06/03 00:29:40;;;;;;;;;;;27.20;58.40;;;;;;680122;29;1340;-93
2022/06/03 00:30:04;;;;;;;;;;;27.20;58.40;;;;;;680266;29;812;-90
2022/06/03 00:30:33;;;;;;;;;;;27.20;58.40;;;;;;680330;29;1907;-87
2022/06/03 00:31:14;;;;;;;;;;;27.20;58.40;;;;;;680355;29;951;-90
2022/06/03 00:31:37;;;;;;;;;;;27.10;57.40;;;;;;679834;29;1087;-83
2022/06/03 00:32:09;;;;;;;;;;;27.20;58.50;;;;;;680196;29;1256;-89
2022/06/03 00:32:51;;;;;;;;;;;27.20;58.40;;;;;;680250;29;947;-86
2022/06/03 00:33:15;;;;;;;;;;;27.20;58.40;;;;;;677670;29;799;-89
2022/06/03 00:33:35;;;;;;;;;;;27.20;58.50;;;;;;677570;29;889;-84
2022/06/03 00:34:11;;;;;;;;;;;27.20;58.50;;;;;;677775;29;856;-89
2022/06/03 00:34:40;;;;;;;;;;;27.10;57.50;;;;;;677616;29;1025;-88
2022/06/03 00:35:15;;;;;;;;;;;27.10;58.50;;;;;;677502;29;908;-89
2022/06/03 00:35:35;;;;;;;;;;;27.10;58.40;;;;;;678020;29;831;-82
2022/06/03 00:36:01;;;;;;;;;;;27.20;58.50;;;;;;677789;29;911;-83
2022/06/03 00:36:39;;;;;;;;;;;27.10;58.50;;;;;;677797;29;836;-90
2022/06/03 00:37:02;;;;;;;;;;;27.10;58.50;;;;;;677620;29;776;-88
2022/06/03 00:37:30;;;;;;;;;;;27.10;57.60;;;;;;677739;29;874;-89
2022/06/03 00:37:53;;;;;;;;;;;27.20;58.70;;;;;;677747;29;925;-90
2022/06/03 00:38:33;;;;;;;;;;;27.10;58.50;;;;;;679354;29;1264;-81
2022/06/03 00:39:12;;;;;;;;;;;27.10;57.70;;;;;;680417;29;855;-89
2022/06/03 00:39:57;;;;;;;;;;;27.10;58.60;;;;;;680195;29;950;-89
2022/06/03 00:40:21;;;;;;;;;;;27.10;58.50;;;;;;680342;29;890;-88
2022/06/03 00:40:52;;;;;;;;;;;27.10;58.50;;;;;;680175;29;1007;-92
2022/06/03 00:41:25;;;;;;;;;;;27.10;58.60;;;;;;680056;29;1393;-89
2022/06/03 00:42:04;;;;;;;;;;;27.10;58.60;;;;;;680036;29;1163;-88
2022/06/03 00:42:33;;;;;;;;;;;27.10;58.60;;;;;;680377;29;831;-85
2022/06/03 00:43:14;;;;;;;;;;;27.10;58.60;;;;;;680346;29;1476;-82
2022/06/03 00:43:46;;;;;;;;;;;27.10;58.50;;;;;;680181;29;895;-84
2022/06/03 00:44:06;;;;;;;;;;;27.10;58.70;;;;;;680156;29;919;-89
2022/06/03 00:44:33;;;;;;;;;;;27.10;58.80;;;;;;680299;29;906;-88
2022/06/03 00:44:56;;;;;;;;;;;27.10;57.90;;;;;;680422;29;819;-90
2022/06/03 00:45:25;;;;;;;;;;;27.10;57.90;;;;;;679243;29;1591;-88
2022/06/03 00:45:59;;;;;;;;;;;27.10;58.80;;;;;;680297;29;863;-92
2022/06/03 00:46:22;;;;;;;;;;;27.10;58.80;;;;;;680322;29;839;-90
2022/06/03 00:47:03;;;;;;;;;;;27.10;58.90;;;;;;680259;29;1295;-89
2022/06/03 00:47:32;;;;;;;;;;;27.10;58.90;;;;;;677260;29;1359;-90
2022/06/03 00:48:08;;;;;;;;;;;26.10;58.10;;;;;;677787;29;843;-93
2022/06/03 00:48:31;;;;;;;;;;;27.10;58.80;;;;;;678560;29;1271;-91
2022/06/03 00:48:52;;;;;;;;;;;27.10;58.90;;;;;;680149;29;1260;-92
2022/06/03 00:49:31;;;;;;;;;;;27.10;58.80;;;;;;680352;29;872;-91
2022/06/03 00:49:52;;;;;;;;;;;27.10;58.80;;;;;;680423;29;851;-95
2022/06/03 00:50:30;;;;;;;;;;;27.10;59.10;;;;;;680129;29;1903;-95
2022/06/03 00:51:09;;;;;;;;;;;27.10;58.80;;;;;;680437;29;868;-91
2022/06/03 00:51:54;;;;;;;;;;;27.10;58.80;;;;;;680234;29;1466;-91
2022/06/03 00:52:37;;;;;;;;;;;27.10;58.80;;;;;;680258;29;908;-82
2022/06/03 00:53:16;;;;;;;;;;;27.10;58.90;;;;;;680603;29;868;-95
2022/06/03 00:54:00;;;;;;;;;;;27.00;59.00;;;;;;680288;29;817;-93
2022/06/03 00:54:38;;;;;;;;;;;27.10;58.90;;;;;;680340;29;1082;-95
2022/06/03 00:55:08;;;;;;;;;;;27.10;58.90;;;;;;680524;29;827;-96
2022/06/03 00:55:31;;;;;;;;;;;27.00;58.90;;;;;;680493;29;883;-95
2022/06/03 00:56:16;;;;;;;;;;;27.10;60.10;;;;;;680501;29;849;-95
2022/06/03 00:56:57;;;;;;;;;;;27.00;59.10;;;;;;680304;29;926;-95
2022/06/03 00:57:36;;;;;;;;;;;27.00;58.00;;;;;;675102;29;1100;-94
2022/06/03 00:58:10;;;;;;;;;;;27.00;58.90;;;;;;675227;29;911;-96
2022/06/03 00:58:49;;;;;;;;;;;27.10;59.10;;;;;;674988;29;938;-89
2022/06/03 00:59:16;;;;;;;;;;;27.00;58.90;;;;;;675012;29;856;-88
2022/06/03 00:59:37;;;;;;;;;;;27.00;59.00;;;;;;674309;29;1281;-89
2022/06/03 01:00:16;;;;;;;;;;;27.00;59.10;;;;;;675118;29;1091;-89
2022/06/03 01:00:52;;;;;;;;;;;27.00;58.90;;;;;;674856;29;1497;-89
2022/06/03 01:01:25;;;;;;;;;;;27.00;60.10;;;;;;675142;29;781;-90
2022/06/03 01:01:45;;;;;;;;;;;27.00;59.00;;;;;;675051;29;855;-82
2022/06/03 01:02:28;;;;;;;;;;;27.00;58.00;;;;;;674955;29;875;-90
2022/06/03 01:03:07;;;;;;;;;;;27.00;58.90;;;;;;674985;29;860;-89
2022/06/03 01:03:35;;;;;;;;;;;27.00;59.00;;;;;;675080;29;998;-90
2022/06/03 01:04:17;;;;;;;;;;;27.00;59.00;;;;;;675172;29;776;-83
2022/06/03 01:04:41;;;;;;;;;;;27.00;59.00;;;;;;675146;29;879;-91
2022/06/03 01:05:13;;;;;;;;;;;27.00;59.30;;;;;;675057;29;835;-94
2022/06/03 01:05:40;;;;;;;;;;;27.00;59.30;;;;;;675146;29;887;-91
2022/06/03 01:06:06;;;;;;;;;;;27.00;60.10;;;;;;675125;29;804;-93
2022/06/03 01:06:46;;;;;;;;;;;27.00;59.10;;;;;;675204;29;1126;-89
2022/06/03 01:07:09;;;;;;;;;;;27.00;59.10;;;;;;673956;29;1202;-90
2022/06/03 01:07:32;;;;;;;;;;;27.00;59.00;;;;;;675008;29;934;-86
2022/06/03 01:08:07;;;;;;;;;;;27.00;59.00;;;;;;675193;29;867;-90
2022/06/03 01:08:47;;;;;;;;;;;27.00;59.00;;;;;;675189;29;890;-89
2022/06/03 01:09:23;;;;;;;;;;;27.00;58.90;;;;;;675031;29;816;-90
2022/06/03 01:09:58;;;;;;;;;;;27.00;58.30;;;;;;674903;29;1208;-87
2022/06/03 01:10:29;;;;;;;;;;;27.00;58.30;;;;;;674928;29;1907;-85
2022/06/03 01:10:58;;;;;;;;;;;27.00;59.10;;;;;;675052;29;891;-91
2022/06/03 01:11:18;;;;;;;;;;;27.00;59.00;;;;;;674982;29;807;-92
2022/06/03 01:12:11;;;;;;;;;;;27.00;59.00;;;;;;674790;29;1312;-83
2022/06/03 01:12:47;;;;;;;;;;;27.00;58.10;;;;;;667307;29;1443;-90
2022/06/03 01:13:12;;;;;;;;;;;27.00;59.10;;;;;;667361;29;980;-90
2022/06/03 01:13:40;;;;;;;;;;;27.00;59.00;;;;;;667647;29;1259;-89
2022/06/03 01:14:27;;;;;;;;;;;27.00;59.00;;;;;;674930;29;828;-91
2022/06/03 01:15:16;;;;;;;;;;;27.00;59.00;;;;;;673075;29;1139;-92
2022/06/03 01:15:54;;;;;;;;;;;27.00;59.10;;;;;;669896;29;824;-92
2022/06/03 01:16:17;;;;;;;;;;;27.00;59.10;;;;;;669948;29;1054;-88
2022/06/03 01:16:56;;;;;;;;;;;27.00;59.00;;;;;;669880;29;904;-91
2022/06/03 01:17:34;;;;;;;;;;;27.00;59.10;;;;;;669958;29;882;-91
2022/06/03 01:18:20;;;;;;;;;;;27.00;59.10;;;;;;670010;29;893;-89
2022/06/03 01:18:50;;;;;;;;;;;27.00;59.10;;;;;;664831;29;1200;-91
2022/06/03 01:19:25;;;;;;;;;;;27.00;59.10;;;;;;664978;29;797;-92
2022/06/03 01:19:59;;;;;;;;;;;27.00;59.00;;;;;;669843;29;997;-90
2022/06/03 01:20:28;;;;;;;;;;;27.00;59.00;;;;;;669944;29;863;-93
2022/06/03 01:21:06;;;;;;;;;;;27.00;59.40;;;;;;669801;29;1025;-93
2022/06/03 01:21:29;;;;;;;;;;;27.00;59.40;;;;;;670052;29;951;-94
2022/06/03 01:21:56;;;;;;;;;;;27.00;59.40;;;;;;670050;29;813;-91
2022/06/03 01:22:19;;;;;;;;;;;27.00;59.20;;;;;;669884;29;859;-93
2022/06/03 01:22:40;;;;;;;;;;;27.00;59.10;;;;;;669993;29;987;-88
2022/06/03 01:23:00;;;;;;;;;;;26.90;58.20;;;;;;669930;29;908;-91
2022/06/03 01:23:21;;;;;;;;;;;27.00;59.50;;;;;;670598;29;804;-91
2022/06/03 01:23:50;;;;;;;;;;;26.90;59.30;;;;;;670377;29;1433;-93
2022/06/03 01:24:11;;;;;;;;;;;27.00;58.30;;;;;;670347;29;863;-92
2022/06/03 01:24:32;;;;;;;;;;;26.90;58.20;;;;;;670503;29;832;-94
2022/06/03 01:24:55;;;;;;;;;;;26.90;58.30;;;;;;670494;29;848;-92
2022/06/03 01:25:51;;;;;;;;;;;27.00;59.10;;;;;;670408;29;947;-92
2022/06/03 01:26:22;;;;;;;;;;;27.00;59.10;;;;;;665309;29;813;-90
2022/06/03 01:27:01;;;;;;;;;;;26.90;59.20;;;;;;665419;29;825;-89
2022/06/03 01:27:40;;;;;;;;;;;27.00;59.20;;;;;;665374;29;1041;-88
2022/06/03 01:28:20;;;;;;;;;;;27.00;59.10;;;;;;665287;29;943;-91
2022/06/03 01:28:52;;;;;;;;;;;26.90;59.00;;;;;;662418;29;1306;-93
2022/06/03 01:29:19;;;;;;;;;;;26.90;59.00;;;;;;665341;29;1121;-92
2022/06/03 01:29:58;;;;;;;;;;;27.00;59.10;;;;;;665398;29;509;-93
2022/06/03 01:30:31;;;;;;;;;;;26.90;59.30;;;;;;665306;29;1904;-90
2022/06/03 01:31:10;;;;;;;;;;;26.90;59.60;;;;;;665413;29;813;-91
2022/06/03 01:31:30;;;;;;;;;;;26.90;59.30;;;;;;665354;29;877;-90
2022/06/03 01:32:11;;;;;;;;;;;26.90;59.40;;;;;;665409;29;746;-91
2022/06/03 01:32:38;;;;;;;;;;;26.90;59.40;;;;;;662011;29;2119;-91
2022/06/03 01:33:01;;;;;;;;;;;26.90;59.40;;;;;;660452;30;884;-91
2022/06/03 01:33:27;;;;;;;;;;;26.90;59.30;;;;;;660480;30;888;-92
2022/06/03 01:33:57;;;;;;;;;;;26.90;59.20;;;;;;660204;29;1025;-90
2022/06/03 01:34:36;;;;;;;;;;;27.00;58.50;;;;;;660280;30;917;-92
2022/06/03 01:35:11;;;;;;;;;;;26.90;59.40;;;;;;660452;30;913;-92
2022/06/03 01:35:41;;;;;;;;;;;27.00;59.40;;;;;;662247;29;1106;-92
2022/06/03 01:36:14;;;;;;;;;;;27.00;59.30;;;;;;665283;29;963;-91
2022/06/03 01:36:49;;;;;;;;;;;27.00;59.30;;;;;;665278;29;836;-91
2022/06/03 01:37:10;;;;;;;;;;;27.00;58.40;;;;;;665352;29;884;-91
2022/06/03 01:37:31;;;;;;;;;;;27.00;59.60;;;;;;665301;29;790;-90
2022/06/03 01:37:54;;;;;;;;;;;26.90;58.30;;;;;;665340;29;1451;-91
2022/06/03 01:38:41;;;;;;;;;;;27.00;59.20;;;;;;665434;29;833;-89
2022/06/03 01:39:08;;;;;;;;;;;27.00;59.30;;;;;;665119;29;1242;-92
2022/06/03 01:39:39;;;;;;;;;;;27.00;58.30;;;;;;665463;29;913;-91
2022/06/03 01:40:11;;;;;;;;;;;27.00;59.10;;;;;;665353;29;881;-92
2022/06/03 01:40:49;;;;;;;;;;;27.00;59.10;;;;;;665289;29;816;-91
2022/06/03 01:41:20;;;;;;;;;;;27.00;59.20;;;;;;665162;29;1147;-91
2022/06/03 01:41:44;;;;;;;;;;;27.00;59.10;;;;;;665335;29;817;-92
2022/06/03 01:42:22;;;;;;;;;;;27.00;59.10;;;;;;665249;29;979;-81
2022/06/03 01:42:43;;;;;;;;;;;27.00;59.00;;;;;;665351;29;920;-92
2022/06/03 01:43:12;;;;;;;;;;;27.00;58.90;;;;;;665155;29;936;-90
2022/06/03 01:43:33;;;;;;;;;;;27.00;60.20;;;;;;665216;29;894;-89
2022/06/03 01:43:59;;;;;;;;;;;27.00;59.10;;;;;;665409;29;880;-91
2022/06/03 01:44:47;;;;;;;;;;;27.00;59.20;;;;;;665393;29;860;-92
2022/06/03 01:45:26;;;;;;;;;;;27.00;58.00;;;;;;665312;29;1439;-92
2022/06/03 01:45:59;;;;;;;;;;;27.00;59.00;;;;;;665290;29;825;-92
2022/06/03 01:46:30;;;;;;;;;;;27.00;59.00;;;;;;665321;29;1338;-92
2022/06/03 01:47:09;;;;;;;;;;;27.00;58.90;;;;;;665206;29;1476;-90
2022/06/03 01:47:30;;;;;;;;;;;27.00;59.10;;;;;;665261;29;915;-84
2022/06/03 01:47:57;;;;;;;;;;;27.00;57.90;;;;;;665341;29;877;-91
2022/06/03 01:48:24;;;;;;;;;;;27.00;58.90;;;;;;665115;29;1299;-92
2022/06/03 01:48:56;;;;;;;;;;;27.00;58.80;;;;;;665240;29;1409;-81
2022/06/03 01:49:42;;;;;;;;;;;27.00;58.90;;;;;;665231;29;1059;-91
2022/06/03 01:50:15;;;;;;;;;;;27.00;57.90;;;;;;664934;29;1347;-91
2022/06/03 01:50:47;;;;;;;;;;;27.00;58.70;;;;;;665331;29;861;-90
2022/06/03 01:51:08;;;;;;;;;;;27.00;58.60;;;;;;665179;29;968;-88
2022/06/03 01:51:31;;;;;;;;;;;27.00;58.90;;;;;;665316;29;865;-91
2022/06/03 01:51:58;;;;;;;;;;;27.00;58.80;;;;;;665339;29;881;-89
2022/06/03 01:52:33;;;;;;;;;;;27.00;58.80;;;;;;665418;29;812;-92
2022/06/03 01:53:12;;;;;;;;;;;27.00;58.80;;;;;;665302;29;849;-92
2022/06/03 01:53:44;;;;;;;;;;;27.00;58.60;;;;;;670285;29;1333;-91
2022/06/03 01:54:23;;;;;;;;;;;27.00;58.60;;;;;;670289;29;875;-90
2022/06/03 01:55:02;;;;;;;;;;;27.00;58.60;;;;;;670341;29;947;-80
2022/06/03 01:55:23;;;;;;;;;;;27.00;58.60;;;;;;670345;29;855;-92
2022/06/03 01:56:02;;;;;;;;;;;27.00;58.50;;;;;;670327;29;812;-90
2022/06/03 01:56:45;;;;;;;;;;;27.70;59.00;;;;;;670438;29;801;-89
2022/06/03 01:57:12;;;;;;;;;;;27.00;58.80;;;;;;667599;29;1778;-89
2022/06/03 01:57:35;;;;;;;;;;;27.00;58.70;;;;;;667719;29;816;-89
2022/06/03 01:57:58;;;;;;;;;;;27.00;58.70;;;;;;667856;29;871;-89
2022/06/03 01:58:48;;;;;;;;;;;27.00;58.50;;;;;;667737;29;989;-90
2022/06/03 01:59:24;;;;;;;;;;;27.00;58.70;;;;;;672850;29;979;-88
2022/06/03 02:00:08;;;;;;;;;;;27.00;58.60;;;;;;672912;29;898;-86
2022/06/03 02:00:34;;;;;;;;;;;27.00;58.40;;;;;;672913;29;1259;-93
2022/06/03 02:00:55;;;;;;;;;;;27.00;58.40;;;;;;673003;29;1426;-92
2022/06/03 02:01:30;;;;;;;;;;;27.00;58.60;;;;;;674261;29;1052;-94
2022/06/03 02:02:10;;;;;;;;;;;27.00;58.30;;;;;;678378;29;903;-93
2022/06/03 02:02:42;;;;;;;;;;;27.00;58.40;;;;;;678109;29;895;-90
2022/06/03 02:03:21;;;;;;;;;;;27.00;58.30;;;;;;677975;29;1027;-92
2022/06/03 02:03:48;;;;;;;;;;;27.00;58.50;;;;;;678030;29;942;-93
2022/06/03 02:04:25;;;;;;;;;;;27.00;58.30;;;;;;678040;29;892;-94
2022/06/03 02:04:58;;;;;;;;;;;27.00;58.40;;;;;;678063;29;800;-91
2022/06/03 02:05:19;;;;;;;;;;;27.00;58.30;;;;;;677906;29;824;-89
2022/06/03 02:06:02;;;;;;;;;;;27.00;58.50;;;;;;678018;29;967;-89
2022/06/03 02:06:35;;;;;;;;;;;27.00;58.30;;;;;;678049;29;1142;-92
2022/06/03 02:07:15;;;;;;;;;;;27.00;58.30;;;;;;678119;29;757;-92
2022/06/03 02:07:48;;;;;;;;;;;27.00;58.40;;;;;;678104;29;823;-91
2022/06/03 02:08:08;;;;;;;;;;;27.00;58.40;;;;;;677997;29;894;-91
2022/06/03 02:08:47;;;;;;;;;;;26.90;57.20;;;;;;678046;29;848;-91
2022/06/03 02:09:30;;;;;;;;;;;27.00;58.30;;;;;;678057;29;859;-90
2022/06/03 02:09:51;;;;;;;;;;;27.00;58.40;;;;;;678032;29;800;-89
2022/06/03 02:10:20;;;;;;;;;;;26.90;57.10;;;;;;677984;29;1898;-88
2022/06/03 02:10:41;;;;;;;;;;;27.00;58.20;;;;;;678055;29;1002;-93
2022/06/03 02:11:04;;;;;;;;;;;27.00;58.30;;;;;;677891;29;1110;-90
2022/06/03 02:11:33;;;;;;;;;;;27.00;58.30;;;;;;678152;29;844;-88
2022/06/03 02:12:11;;;;;;;;;;;27.00;58.30;;;;;;678177;29;848;-85
2022/06/03 02:12:50;;;;;;;;;;;27.00;58.20;;;;;;678132;29;887;-90
2022/06/03 02:13:11;;;;;;;;;;;27.00;58.30;;;;;;678053;29;808;-89
2022/06/03 02:13:40;;;;;;;;;;;27.00;57.30;;;;;;677922;29;1332;-93
2022/06/03 02:14:01;;;;;;;;;;;27.00;58.20;;;;;;677984;29;950;-91
2022/06/03 02:14:33;;;;;;;;;;;27.00;58.20;;;;;;678164;29;844;-88
2022/06/03 02:15:00;;;;;;;;;;;27.00;58.20;;;;;;678102;29;939;-86
2022/06/03 02:15:34;;;;;;;;;;;27.00;58.30;;;;;;678180;29;871;-89
2022/06/03 02:16:13;;;;;;;;;;;27.00;58.10;;;;;;678288;29;855;-89
2022/06/03 02:16:42;;;;;;;;;;;27.00;58.10;;;;;;677982;29;820;-87
2022/06/03 02:17:05;;;;;;;;;;;27.00;58.40;;;;;;678060;29;950;-92
2022/06/03 02:17:46;;;;;;;;;;;27.00;57.30;;;;;;678090;29;977;-90
2022/06/03 02:18:18;;;;;;;;;;;27.00;58.20;;;;;;677792;29;1147;-92
2022/06/03 02:19:01;;;;;;;;;;;27.00;57.30;;;;;;677971;29;963;-89
2022/06/03 02:19:30;;;;;;;;;;;27.00;58.30;;;;;;678026;29;1168;-89
2022/06/03 02:20:01;;;;;;;;;;;27.00;58.10;;;;;;678135;29;579;-87
2022/06/03 02:20:37;;;;;;;;;;;27.00;58.20;;;;;;677796;29;1123;-87
2022/06/03 02:21:16;;;;;;;;;;;27.00;58.10;;;;;;672907;29;903;-90
2022/06/03 02:21:39;;;;;;;;;;;27.00;58.20;;;;;;672787;29;970;-88
2022/06/03 02:22:18;;;;;;;;;;;27.00;58.20;;;;;;672832;29;821;-81
2022/06/03 02:22:57;;;;;;;;;;;27.00;58.20;;;;;;672818;29;876;-89
2022/06/03 02:23:28;;;;;;;;;;;27.00;58.10;;;;;;673030;29;820;-92
2022/06/03 02:23:58;;;;;;;;;;;27.00;58.30;;;;;;673585;29;1167;-90
2022/06/03 02:24:22;;;;;;;;;;;27.00;58.30;;;;;;673161;29;796;-91
2022/06/03 02:25:00;;;;;;;;;;;27.00;58.20;;;;;;673369;29;824;-89
2022/06/03 02:25:36;;;;;;;;;;;27.00;58.20;;;;;;673558;29;967;-89
2022/06/03 02:25:59;;;;;;;;;;;27.00;58.40;;;;;;673745;29;854;-91
2022/06/03 02:26:38;;;;;;;;;;;27.00;58.20;;;;;;673623;29;1367;-91
2022/06/03 02:26:58;;;;;;;;;;;27.00;58.30;;;;;;674375;29;869;-91
2022/06/03 02:27:31;;;;;;;;;;;27.00;58.20;;;;;;674942;29;1002;-90
2022/06/03 02:27:51;;;;;;;;;;;27.10;58.30;;;;;;673944;29;884;-89
2022/06/03 02:28:23;;;;;;;;;;;27.00;58.20;;;;;;673735;29;797;-91
2022/06/03 02:28:44;;;;;;;;;;;27.00;58.10;;;;;;674047;29;768;-80
2022/06/03 02:30:26;;;;;;;;;;;27.00;58.20;;;;;;672844;29;639;-92
2022/06/03 02:30:52;;;;;;;;;;;27.00;58.20;;;;;;672798;29;923;-91
2022/06/03 02:31:18;;;;;;;;;;;27.00;58.10;;;;;;672790;29;895;-92
2022/06/03 02:31:51;;;;;;;;;;;27.00;58.10;;;;;;672734;29;1016;-91
2022/06/03 02:32:11;;;;;;;;;;;27.00;58.00;;;;;;672734;29;1150;-92
2022/06/03 02:32:50;;;;;;;;;;;27.00;58.10;;;;;;672843;29;898;-90
2022/06/03 02:33:11;;;;;;;;;;;27.00;58.40;;;;;;672783;29;931;-91
2022/06/03 02:33:37;;;;;;;;;;;27.00;58.30;;;;;;672781;29;932;-91
2022/06/03 02:34:10;;;;;;;;;;;27.00;58.10;;;;;;672840;29;903;-92
2022/06/03 02:34:49;;;;;;;;;;;27.00;58.10;;;;;;672758;29;817;-89
2022/06/03 02:35:12;;;;;;;;;;;27.00;58.10;;;;;;672584;29;801;-91
2022/06/03 02:35:54;;;;;;;;;;;27.00;57.20;;;;;;672704;29;840;-87
2022/06/03 02:36:32;;;;;;;;;;;27.00;58.10;;;;;;672649;29;939;-85
2022/06/03 02:37:01;;;;;;;;;;;27.00;58.10;;;;;;664794;29;1070;-91
2022/06/03 02:37:36;;;;;;;;;;;27.00;58.10;;;;;;665206;29;872;-92
2022/06/03 02:38:15;;;;;;;;;;;27.00;58.10;;;;;;665127;29;1158;-89
2022/06/03 02:38:36;;;;;;;;;;;27.00;58.10;;;;;;667809;29;1111;-89
2022/06/03 02:39:06;;;;;;;;;;;27.00;57.20;;;;;;675410;29;909;-92
2022/06/03 02:39:30;;;;;;;;;;;27.00;58.10;;;;;;675400;29;962;-92
2022/06/03 02:39:59;;;;;;;;;;;27.00;58.10;;;;;;675537;29;848;-92
2022/06/03 02:40:28;;;;;;;;;;;27.00;58.10;;;;;;675389;29;788;-92
2022/06/03 02:41:07;;;;;;;;;;;27.00;58.10;;;;;;675330;29;834;-91
2022/06/03 02:41:28;;;;;;;;;;;27.10;58.20;;;;;;675472;29;926;-92
2022/06/03 02:42:08;;;;;;;;;;;27.10;58.10;;;;;;675360;29;824;-92
2022/06/03 02:42:37;;;;;;;;;;;27.10;57.20;;;;;;675447;29;927;-91
2022/06/03 02:43:03;;;;;;;;;;;27.00;58.00;;;;;;675467;29;855;-92
2022/06/03 02:43:27;;;;;;;;;;;27.00;58.00;;;;;;675415;29;841;-86
2022/06/03 02:43:56;;;;;;;;;;;27.00;58.00;;;;;;675393;29;954;-90
2022/06/03 02:44:30;;;;;;;;;;;27.00;57.90;;;;;;675503;29;828;-92
2022/06/03 02:44:51;;;;;;;;;;;27.00;58.00;;;;;;675526;29;832;-93
2022/06/03 02:45:12;;;;;;;;;;;27.00;58.00;;;;;;675547;29;958;-94
2022/06/03 02:45:39;;;;;;;;;;;27.00;57.10;;;;;;675412;29;805;-91
2022/06/03 02:46:08;;;;;;;;;;;27.00;58.00;;;;;;675584;29;871;-91
2022/06/03 02:46:34;;;;;;;;;;;27.10;58.00;;;;;;675617;29;812;-91
2022/06/03 02:47:01;;;;;;;;;;;27.10;58.10;;;;;;678336;29;962;-90
2022/06/03 02:47:59;;;;;;;;;;;27.00;58.00;;;;;;678418;29;883;-93
2022/06/03 02:48:32;;;;;;;;;;;27.10;58.10;;;;;;675455;29;1186;-93
2022/06/03 02:49:10;;;;;;;;;;;27.00;58.00;;;;;;675423;29;1241;-92
2022/06/03 02:49:49;;;;;;;;;;;27.10;58.00;;;;;;675485;29;872;-92
2022/06/03 02:50:28;;;;;;;;;;;27.10;58.00;;;;;;675314;29;856;-92
2022/06/03 02:50:59;;;;;;;;;;;27.10;58.00;;;;;;675808;29;819;-92
2022/06/03 02:51:20;;;;;;;;;;;27.00;57.00;;;;;;673934;29;1494;-91
2022/06/03 02:52:02;;;;;;;;;;;27.00;57.00;;;;;;672803;29;916;-92
2022/06/03 02:52:41;;;;;;;;;;;27.10;58.00;;;;;;672727;29;1439;-89
2022/06/03 02:53:20;;;;;;;;;;;27.00;57.90;;;;;;673098;29;804;-89
2022/06/03 02:53:50;;;;;;;;;;;27.00;57.90;;;;;;675357;29;796;-92
2022/06/03 02:54:19;;;;;;;;;;;27.10;58.00;;;;;;675220;29;946;-89
2022/06/03 02:54:58;;;;;;;;;;;27.00;58.00;;;;;;675505;29;816;-93
2022/06/03 02:55:29;;;;;;;;;;;27.00;57.90;;;;;;675394;29;966;-92
2022/06/03 02:55:59;;;;;;;;;;;27.00;57.90;;;;;;675671;29;910;-93
2022/06/03 02:56:40;;;;;;;;;;;27.00;57.90;;;;;;675418;29;908;-92
2022/06/03 02:57:01;;;;;;;;;;;27.00;57.90;;;;;;675369;29;772;-92
2022/06/03 02:57:40;;;;;;;;;;;27.00;57.90;;;;;;675574;29;820;-92
2022/06/03 02:58:09;;;;;;;;;;;27.00;57.90;;;;;;675460;29;935;-93
2022/06/03 02:58:52;;;;;;;;;;;27.00;57.90;;;;;;675404;29;863;-90
2022/06/03 02:59:32;;;;;;;;;;;27.10;57.90;;;;;;675521;29;816;-94
2022/06/03 02:59:58;;;;;;;;;;;27.00;57.90;;;;;;675533;29;935;-91
2022/06/03 03:00:37;;;;;;;;;;;27.00;58.00;;;;;;675313;29;871;-92
2022/06/03 03:00:58;;;;;;;;;;;27.00;57.90;;;;;;675351;29;986;-90
2022/06/03 03:01:32;;;;;;;;;;;27.00;57.90;;;;;;675317;29;856;-90
2022/06/03 03:02:01;;;;;;;;;;;27.00;58.00;;;;;;675441;29;808;-89
2022/06/03 03:02:30;;;;;;;;;;;27.00;57.90;;;;;;675385;29;867;-90
2022/06/03 03:02:53;;;;;;;;;;;27.00;57.00;;;;;;675409;29;847;-92
2022/06/03 03:03:32;;;;;;;;;;;27.00;56.90;;;;;;675299;29;1300;-84
2022/06/03 03:03:58;;;;;;;;;;;27.00;57.90;;;;;;675491;29;899;-91
2022/06/03 03:04:35;;;;;;;;;;;27.00;57.90;;;;;;675295;29;915;-91
2022/06/03 03:05:00;;;;;;;;;;;27.00;57.90;;;;;;675499;29;879;-91
2022/06/03 03:05:32;;;;;;;;;;;27.00;58.00;;;;;;675440;29;780;-93
2022/06/03 03:05:58;;;;;;;;;;;27.00;58.00;;;;;;675449;29;867;-92
2022/06/03 03:06:25;;;;;;;;;;;27.00;57.90;;;;;;675214;29;868;-90
2022/06/03 03:07:05;;;;;;;;;;;27.00;57.90;;;;;;675278;29;950;-90
2022/06/03 03:07:38;;;;;;;;;;;27.00;57.90;;;;;;672702;29;1306;-90
2022/06/03 03:08:07;;;;;;;;;;;27.00;57.80;;;;;;672830;29;854;-93
2022/06/03 03:08:56;;;;;;;;;;;27.00;58.10;;;;;;672753;29;991;-91
2022/06/03 03:09:40;;;;;;;;;;;27.00;57.20;;;;;;672816;29;797;-91
2022/06/03 03:10:01;;;;;;;;;;;27.00;58.10;;;;;;675198;29;1145;-86
2022/06/03 03:10:28;;;;;;;;;;;27.00;58.10;;;;;;675287;29;1972;-91
2022/06/03 03:10:49;;;;;;;;;;;27.00;58.20;;;;;;675198;29;1066;-90
2022/06/03 03:11:10;;;;;;;;;;;27.00;59.20;;;;;;675191;29;1090;-91
2022/06/03 03:11:39;;;;;;;;;;;27.00;58.10;;;;;;675275;29;863;-90